sensor_id;sensor_type;location;lat;lon;timestamp;P1;durP1;ratioP1;P2;durP2;ratioP2
68449;SDS011;67758;39.572;2.652;2024-01-27T00:01:22;11.75;;;5.28;;
68449;SDS011;67758;39.572;2.652;2024-01-27T00:03:47;11.30;;;5.13;;
68449;SDS011;67758;39.572;2.652;2024-01-27T00:06:13;12.00;;;5.35;;
68449;SDS011;67758;39.572;2.652;2024-01-27T00:08:38;12.18;;;5.13;;
68449;SDS011;67758;39.572;2.652;2024-01-27T00:11:04;15.00;;;5.03;;
68449;SDS011;67758;39.572;2.652;2024-01-27T00:13:30;11.30;;;4.75;;
68449;SDS011;67758;39.572;2.652;2024-01-27T00:15:55;11.77;;;4.57;;
68449;SDS011;67758;39.572;2.652;2024-01-27T00:18:21;14.53;;;5.60;;
68449;SDS011;67758;39.572;2.652;2024-01-27T00:20:47;11.20;;;4.65;;
68449;SDS011;67758;39.572;2.652;2024-01-27T00:23:12;10.17;;;5.07;;
68449;SDS011;67758;39.572;2.652;2024-01-27T00:25:38;11.57;;;5.13;;
68449;SDS011;67758;39.572;2.652;2024-01-27T00:28:03;10.70;;;5.03;;
68449;SDS011;67758;39.572;2.652;2024-01-27T00:30:29;12.98;;;5.00;;
68449;SDS011;67758;39.572;2.652;2024-01-27T00:32:55;12.87;;;4.70;;
68449;SDS011;67758;39.572;2.652;2024-01-27T00:35:21;12.07;;;4.15;;
68449;SDS011;67758;39.572;2.652;2024-01-27T00:37:47;10.10;;;5.10;;
68449;SDS011;67758;39.572;2.652;2024-01-27T00:40:12;11.70;;;5.07;;
68449;SDS011;67758;39.572;2.652;2024-01-27T00:42:38;11.93;;;4.43;;
68449;SDS011;67758;39.572;2.652;2024-01-27T00:45:05;10.60;;;4.15;;
68449;SDS011;67758;39.572;2.652;2024-01-27T00:47:31;10.85;;;4.60;;
68449;SDS011;67758;39.572;2.652;2024-01-27T00:49:57;11.63;;;4.67;;
68449;SDS011;67758;39.572;2.652;2024-01-27T00:52:23;10.52;;;4.50;;
68449;SDS011;67758;39.572;2.652;2024-01-27T00:54:48;10.43;;;4.50;;
68449;SDS011;67758;39.572;2.652;2024-01-27T00:57:14;12.45;;;4.90;;
68449;SDS011;67758;39.572;2.652;2024-01-27T00:59:39;9.63;;;4.10;;
68449;SDS011;67758;39.572;2.652;2024-01-27T01:02:06;11.70;;;4.63;;
68449;SDS011;67758;39.572;2.652;2024-01-27T01:04:32;9.93;;;4.10;;
68449;SDS011;67758;39.572;2.652;2024-01-27T01:06:58;9.82;;;4.38;;
68449;SDS011;67758;39.572;2.652;2024-01-27T01:09:23;12.07;;;4.38;;
68449;SDS011;67758;39.572;2.652;2024-01-27T01:11:49;8.67;;;3.60;;
68449;SDS011;67758;39.572;2.652;2024-01-27T01:14:15;9.77;;;4.20;;
68449;SDS011;67758;39.572;2.652;2024-01-27T01:16:40;9.20;;;3.77;;
68449;SDS011;67758;39.572;2.652;2024-01-27T01:19:06;10.13;;;3.93;;
68449;SDS011;67758;39.572;2.652;2024-01-27T01:21:32;10.55;;;3.70;;
68449;SDS011;67758;39.572;2.652;2024-01-27T01:23:57;8.43;;;3.70;;
68449;SDS011;67758;39.572;2.652;2024-01-27T01:26:26;8.43;;;3.70;;
68449;SDS011;67758;39.572;2.652;2024-01-27T01:28:52;10.63;;;3.97;;
68449;SDS011;67758;39.572;2.652;2024-01-27T01:31:17;12.73;;;3.83;;
68449;SDS011;67758;39.572;2.652;2024-01-27T01:33:43;9.73;;;3.60;;
68449;SDS011;67758;39.572;2.652;2024-01-27T01:36:09;9.85;;;3.80;;
68449;SDS011;67758;39.572;2.652;2024-01-27T01:38:35;7.68;;;3.38;;
68449;SDS011;67758;39.572;2.652;2024-01-27T01:41:00;8.67;;;3.50;;
68449;SDS011;67758;39.572;2.652;2024-01-27T01:43:26;10.27;;;3.65;;
68449;SDS011;67758;39.572;2.652;2024-01-27T01:45:52;8.57;;;3.33;;
68449;SDS011;67758;39.572;2.652;2024-01-27T01:48:20;8.82;;;3.25;;
68449;SDS011;67758;39.572;2.652;2024-01-27T01:50:46;9.20;;;3.70;;
68449;SDS011;67758;39.572;2.652;2024-01-27T01:53:12;8.27;;;3.28;;
68449;SDS011;67758;39.572;2.652;2024-01-27T01:55:38;8.25;;;3.10;;
68449;SDS011;67758;39.572;2.652;2024-01-27T01:58:04;9.13;;;3.17;;
68449;SDS011;67758;39.572;2.652;2024-01-27T02:00:30;10.32;;;3.35;;
68449;SDS011;67758;39.572;2.652;2024-01-27T02:02:56;8.75;;;3.58;;
68449;SDS011;67758;39.572;2.652;2024-01-27T02:05:22;9.00;;;3.20;;
68449;SDS011;67758;39.572;2.652;2024-01-27T02:07:47;7.78;;;3.42;;
68449;SDS011;67758;39.572;2.652;2024-01-27T02:10:13;6.77;;;3.03;;
68449;SDS011;67758;39.572;2.652;2024-01-27T02:12:43;7.43;;;2.70;;
68449;SDS011;67758;39.572;2.652;2024-01-27T02:15:10;8.63;;;3.35;;
68449;SDS011;67758;39.572;2.652;2024-01-27T02:17:40;8.63;;;2.83;;
68449;SDS011;67758;39.572;2.652;2024-01-27T02:20:06;7.43;;;2.90;;
68449;SDS011;67758;39.572;2.652;2024-01-27T02:22:33;10.20;;;3.10;;
68449;SDS011;67758;39.572;2.652;2024-01-27T02:24:59;9.55;;;3.55;;
68449;SDS011;67758;39.572;2.652;2024-01-27T02:27:25;8.50;;;2.63;;
68449;SDS011;67758;39.572;2.652;2024-01-27T02:29:50;8.65;;;2.90;;
68449;SDS011;67758;39.572;2.652;2024-01-27T02:32:16;9.50;;;2.90;;
68449;SDS011;67758;39.572;2.652;2024-01-27T02:34:41;6.80;;;2.78;;
68449;SDS011;67758;39.572;2.652;2024-01-27T02:37:07;7.63;;;2.97;;
68449;SDS011;67758;39.572;2.652;2024-01-27T02:39:34;8.85;;;3.50;;
68449;SDS011;67758;39.572;2.652;2024-01-27T02:42:00;7.53;;;3.40;;
68449;SDS011;67758;39.572;2.652;2024-01-27T02:44:25;7.53;;;3.10;;
68449;SDS011;67758;39.572;2.652;2024-01-27T02:46:51;7.17;;;3.10;;
68449;SDS011;67758;39.572;2.652;2024-01-27T02:49:16;8.63;;;3.17;;
68449;SDS011;67758;39.572;2.652;2024-01-27T02:51:42;7.78;;;2.78;;
68449;SDS011;67758;39.572;2.652;2024-01-27T02:54:07;6.47;;;2.87;;
68449;SDS011;67758;39.572;2.652;2024-01-27T02:56:33;7.40;;;2.73;;
68449;SDS011;67758;39.572;2.652;2024-01-27T02:58:59;7.97;;;2.67;;
68449;SDS011;67758;39.572;2.652;2024-01-27T03:01:24;6.63;;;2.80;;
68449;SDS011;67758;39.572;2.652;2024-01-27T03:03:50;8.02;;;2.70;;
68449;SDS011;67758;39.572;2.652;2024-01-27T03:06:15;6.63;;;2.63;;
68449;SDS011;67758;39.572;2.652;2024-01-27T03:08:41;8.37;;;3.10;;
68449;SDS011;67758;39.572;2.652;2024-01-27T03:11:07;8.40;;;3.42;;
68449;SDS011;67758;39.572;2.652;2024-01-27T03:13:32;10.13;;;3.33;;
68449;SDS011;67758;39.572;2.652;2024-01-27T03:15:58;8.98;;;3.50;;
68449;SDS011;67758;39.572;2.652;2024-01-27T03:18:23;8.80;;;3.50;;
68449;SDS011;67758;39.572;2.652;2024-01-27T03:20:50;9.73;;;3.50;;
68449;SDS011;67758;39.572;2.652;2024-01-27T03:23:15;8.17;;;3.30;;
68449;SDS011;67758;39.572;2.652;2024-01-27T03:25:41;8.02;;;3.85;;
68449;SDS011;67758;39.572;2.652;2024-01-27T03:28:07;8.83;;;3.40;;
68449;SDS011;67758;39.572;2.652;2024-01-27T03:30:32;8.90;;;3.40;;
68449;SDS011;67758;39.572;2.652;2024-01-27T03:32:58;7.60;;;3.00;;
68449;SDS011;67758;39.572;2.652;2024-01-27T03:35:23;5.97;;;2.33;;
68449;SDS011;67758;39.572;2.652;2024-01-27T03:37:49;7.82;;;2.38;;
68449;SDS011;67758;39.572;2.652;2024-01-27T03:40:16;7.18;;;2.60;;
68449;SDS011;67758;39.572;2.652;2024-01-27T03:42:42;6.90;;;2.33;;
68449;SDS011;67758;39.572;2.652;2024-01-27T03:45:08;7.82;;;2.45;;
68449;SDS011;67758;39.572;2.652;2024-01-27T03:47:33;8.80;;;2.50;;
68449;SDS011;67758;39.572;2.652;2024-01-27T03:49:59;7.38;;;2.60;;
68449;SDS011;67758;39.572;2.652;2024-01-27T03:52:24;8.53;;;2.47;;
68449;SDS011;67758;39.572;2.652;2024-01-27T03:54:50;8.27;;;2.70;;
68449;SDS011;67758;39.572;2.652;2024-01-27T03:57:16;9.00;;;3.25;;
68449;SDS011;67758;39.572;2.652;2024-01-27T03:59:41;8.97;;;2.93;;
68449;SDS011;67758;39.572;2.652;2024-01-27T04:02:07;7.18;;;2.35;;
68449;SDS011;67758;39.572;2.652;2024-01-27T04:04:33;7.85;;;2.60;;
68449;SDS011;67758;39.572;2.652;2024-01-27T04:06:58;8.93;;;2.47;;
68449;SDS011;67758;39.572;2.652;2024-01-27T04:09:24;6.82;;;2.75;;
68449;SDS011;67758;39.572;2.652;2024-01-27T04:11:49;6.93;;;2.30;;
68449;SDS011;67758;39.572;2.652;2024-01-27T04:14:16;6.78;;;2.60;;
68449;SDS011;67758;39.572;2.652;2024-01-27T04:16:42;9.52;;;2.88;;
68449;SDS011;67758;39.572;2.652;2024-01-27T04:19:07;8.00;;;2.83;;
68449;SDS011;67758;39.572;2.652;2024-01-27T04:21:33;7.53;;;2.20;;
68449;SDS011;67758;39.572;2.652;2024-01-27T04:23:58;7.57;;;2.40;;
68449;SDS011;67758;39.572;2.652;2024-01-27T04:26:24;8.00;;;2.37;;
68449;SDS011;67758;39.572;2.652;2024-01-27T04:28:49;7.40;;;2.50;;
68449;SDS011;67758;39.572;2.652;2024-01-27T04:31:15;7.13;;;2.40;;
68449;SDS011;67758;39.572;2.652;2024-01-27T04:33:41;6.63;;;2.50;;
68449;SDS011;67758;39.572;2.652;2024-01-27T04:36:06;7.30;;;2.50;;
68449;SDS011;67758;39.572;2.652;2024-01-27T04:38:33;6.77;;;2.30;;
68449;SDS011;67758;39.572;2.652;2024-01-27T04:40:59;6.38;;;2.53;;
68449;SDS011;67758;39.572;2.652;2024-01-27T04:43:24;6.30;;;2.40;;
68449;SDS011;67758;39.572;2.652;2024-01-27T04:45:50;9.48;;;2.42;;
68449;SDS011;67758;39.572;2.652;2024-01-27T04:48:16;5.80;;;2.13;;
68449;SDS011;67758;39.572;2.652;2024-01-27T04:50:41;8.37;;;2.50;;
68449;SDS011;67758;39.572;2.652;2024-01-27T04:53:07;6.97;;;2.20;;
68449;SDS011;67758;39.572;2.652;2024-01-27T04:55:32;9.67;;;2.30;;
68449;SDS011;67758;39.572;2.652;2024-01-27T04:57:58;8.97;;;2.67;;
68449;SDS011;67758;39.572;2.652;2024-01-27T05:00:24;7.90;;;2.22;;
68449;SDS011;67758;39.572;2.652;2024-01-27T05:02:52;9.68;;;2.88;;
68449;SDS011;67758;39.572;2.652;2024-01-27T05:05:17;8.03;;;2.30;;
68449;SDS011;67758;39.572;2.652;2024-01-27T05:07:43;6.40;;;2.25;;
68449;SDS011;67758;39.572;2.652;2024-01-27T05:10:12;8.02;;;2.40;;
68449;SDS011;67758;39.572;2.652;2024-01-27T05:12:39;7.23;;;2.43;;
68449;SDS011;67758;39.572;2.652;2024-01-27T05:15:05;7.53;;;2.30;;
68449;SDS011;67758;39.572;2.652;2024-01-27T05:17:31;6.60;;;2.20;;
68449;SDS011;67758;39.572;2.652;2024-01-27T05:19:59;6.03;;;1.92;;
68449;SDS011;67758;39.572;2.652;2024-01-27T05:22:25;7.78;;;2.00;;
68449;SDS011;67758;39.572;2.652;2024-01-27T05:24:51;6.70;;;2.00;;
68449;SDS011;67758;39.572;2.652;2024-01-27T05:27:16;7.70;;;1.70;;
68449;SDS011;67758;39.572;2.652;2024-01-27T05:29:42;5.93;;;1.90;;
68449;SDS011;67758;39.572;2.652;2024-01-27T05:32:08;7.67;;;2.13;;
68449;SDS011;67758;39.572;2.652;2024-01-27T05:34:33;7.38;;;1.85;;
68449;SDS011;67758;39.572;2.652;2024-01-27T05:36:59;6.93;;;2.00;;
68449;SDS011;67758;39.572;2.652;2024-01-27T05:39:25;7.47;;;1.90;;
68449;SDS011;67758;39.572;2.652;2024-01-27T05:41:50;8.57;;;1.93;;
68449;SDS011;67758;39.572;2.652;2024-01-27T05:44:16;6.37;;;1.53;;
68449;SDS011;67758;39.572;2.652;2024-01-27T05:46:41;6.43;;;1.98;;
68449;SDS011;67758;39.572;2.652;2024-01-27T05:49:07;9.57;;;1.77;;
68449;SDS011;67758;39.572;2.652;2024-01-27T05:51:32;5.95;;;1.52;;
68449;SDS011;67758;39.572;2.652;2024-01-27T05:53:59;8.47;;;1.80;;
68449;SDS011;67758;39.572;2.652;2024-01-27T05:56:25;8.23;;;2.05;;
68449;SDS011;67758;39.572;2.652;2024-01-27T05:58:50;7.63;;;1.63;;
68449;SDS011;67758;39.572;2.652;2024-01-27T06:01:17;6.68;;;2.05;;
68449;SDS011;67758;39.572;2.652;2024-01-27T06:03:44;9.52;;;1.92;;
68449;SDS011;67758;39.572;2.652;2024-01-27T06:06:09;7.73;;;1.83;;
68449;SDS011;67758;39.572;2.652;2024-01-27T06:08:35;8.55;;;1.98;;
68449;SDS011;67758;39.572;2.652;2024-01-27T06:11:01;6.63;;;2.08;;
68449;SDS011;67758;39.572;2.652;2024-01-27T06:13:28;9.50;;;2.10;;
68449;SDS011;67758;39.572;2.652;2024-01-27T06:15:54;5.13;;;1.63;;
68449;SDS011;67758;39.572;2.652;2024-01-27T06:18:19;8.10;;;2.13;;
68449;SDS011;67758;39.572;2.652;2024-01-27T06:20:45;5.95;;;1.60;;
68449;SDS011;67758;39.572;2.652;2024-01-27T06:23:11;6.70;;;1.52;;
68449;SDS011;67758;39.572;2.652;2024-01-27T06:25:37;8.17;;;1.90;;
68449;SDS011;67758;39.572;2.652;2024-01-27T06:28:02;8.33;;;2.07;;
68449;SDS011;67758;39.572;2.652;2024-01-27T06:30:28;7.00;;;1.60;;
68449;SDS011;67758;39.572;2.652;2024-01-27T06:32:54;8.43;;;1.75;;
68449;SDS011;67758;39.572;2.652;2024-01-27T06:35:19;5.60;;;1.73;;
68449;SDS011;67758;39.572;2.652;2024-01-27T06:37:45;7.00;;;1.80;;
68449;SDS011;67758;39.572;2.652;2024-01-27T06:40:11;6.25;;;1.80;;
68449;SDS011;67758;39.572;2.652;2024-01-27T06:42:37;5.95;;;1.65;;
68449;SDS011;67758;39.572;2.652;2024-01-27T06:45:03;6.23;;;1.53;;
68449;SDS011;67758;39.572;2.652;2024-01-27T06:47:29;6.15;;;1.80;;
68449;SDS011;67758;39.572;2.652;2024-01-27T06:49:55;6.97;;;1.88;;
68449;SDS011;67758;39.572;2.652;2024-01-27T06:52:20;5.43;;;1.70;;
68449;SDS011;67758;39.572;2.652;2024-01-27T06:54:46;7.80;;;2.07;;
68449;SDS011;67758;39.572;2.652;2024-01-27T06:57:19;6.95;;;1.65;;
68449;SDS011;67758;39.572;2.652;2024-01-27T06:59:46;7.38;;;1.85;;
68449;SDS011;67758;39.572;2.652;2024-01-27T07:02:17;10.93;;;2.37;;
68449;SDS011;67758;39.572;2.652;2024-01-27T07:04:47;8.82;;;1.88;;
68449;SDS011;67758;39.572;2.652;2024-01-27T07:07:12;9.00;;;1.80;;
68449;SDS011;67758;39.572;2.652;2024-01-27T07:09:38;8.60;;;2.00;;
68449;SDS011;67758;39.572;2.652;2024-01-27T07:12:04;6.30;;;2.07;;
68449;SDS011;67758;39.572;2.652;2024-01-27T07:14:30;6.32;;;2.00;;
68449;SDS011;67758;39.572;2.652;2024-01-27T07:16:55;6.57;;;1.70;;
68449;SDS011;67758;39.572;2.652;2024-01-27T07:19:21;4.72;;;1.13;;
68449;SDS011;67758;39.572;2.652;2024-01-27T07:21:46;8.40;;;1.57;;
68449;SDS011;67758;39.572;2.652;2024-01-27T07:24:12;8.00;;;2.07;;
68449;SDS011;67758;39.572;2.652;2024-01-27T07:26:38;6.13;;;1.60;;
68449;SDS011;67758;39.572;2.652;2024-01-27T07:29:03;7.07;;;1.80;;
68449;SDS011;67758;39.572;2.652;2024-01-27T07:31:29;7.60;;;1.73;;
68449;SDS011;67758;39.572;2.652;2024-01-27T07:33:54;7.60;;;1.73;;
68449;SDS011;67758;39.572;2.652;2024-01-27T07:36:20;5.93;;;1.60;;
68449;SDS011;67758;39.572;2.652;2024-01-27T07:38:45;6.63;;;1.70;;
68449;SDS011;67758;39.572;2.652;2024-01-27T07:41:11;5.32;;;1.80;;
68449;SDS011;67758;39.572;2.652;2024-01-27T07:43:37;6.70;;;1.83;;
68449;SDS011;67758;39.572;2.652;2024-01-27T07:46:02;8.50;;;2.17;;
68449;SDS011;67758;39.572;2.652;2024-01-27T07:48:28;9.17;;;2.10;;
68449;SDS011;67758;39.572;2.652;2024-01-27T07:50:53;9.95;;;2.20;;
68449;SDS011;67758;39.572;2.652;2024-01-27T07:53:21;6.78;;;2.30;;
68449;SDS011;67758;39.572;2.652;2024-01-27T07:55:47;8.00;;;2.20;;
68449;SDS011;67758;39.572;2.652;2024-01-27T07:58:12;7.87;;;2.33;;
68449;SDS011;67758;39.572;2.652;2024-01-27T08:00:38;14.68;;;2.85;;
68449;SDS011;67758;39.572;2.652;2024-01-27T08:03:03;10.97;;;3.17;;
68449;SDS011;67758;39.572;2.652;2024-01-27T08:05:30;13.25;;;2.95;;
68449;SDS011;67758;39.572;2.652;2024-01-27T08:07:55;9.57;;;2.90;;
68449;SDS011;67758;39.572;2.652;2024-01-27T08:10:22;12.27;;;3.00;;
68449;SDS011;67758;39.572;2.652;2024-01-27T08:12:47;10.53;;;3.40;;
68449;SDS011;67758;39.572;2.652;2024-01-27T08:15:13;8.73;;;3.03;;
68449;SDS011;67758;39.572;2.652;2024-01-27T08:17:39;12.10;;;3.37;;
68449;SDS011;67758;39.572;2.652;2024-01-27T08:20:04;10.40;;;3.70;;
68449;SDS011;67758;39.572;2.652;2024-01-27T08:22:30;13.10;;;3.53;;
68449;SDS011;67758;39.572;2.652;2024-01-27T08:24:56;10.38;;;3.50;;
68449;SDS011;67758;39.572;2.652;2024-01-27T08:27:22;10.47;;;3.43;;
68449;SDS011;67758;39.572;2.652;2024-01-27T08:29:47;11.50;;;3.90;;
68449;SDS011;67758;39.572;2.652;2024-01-27T08:32:13;13.05;;;3.58;;
68449;SDS011;67758;39.572;2.652;2024-01-27T08:34:39;13.40;;;3.93;;
68449;SDS011;67758;39.572;2.652;2024-01-27T08:37:13;15.70;;;4.05;;
68449;SDS011;67758;39.572;2.652;2024-01-27T08:39:41;14.77;;;4.55;;
68449;SDS011;67758;39.572;2.652;2024-01-27T08:42:07;15.75;;;4.78;;
68449;SDS011;67758;39.572;2.652;2024-01-27T08:44:32;16.50;;;5.17;;
68449;SDS011;67758;39.572;2.652;2024-01-27T08:46:58;16.33;;;5.40;;
68449;SDS011;67758;39.572;2.652;2024-01-27T08:49:24;16.73;;;6.35;;
68449;SDS011;67758;39.572;2.652;2024-01-27T08:51:49;18.63;;;6.87;;
68449;SDS011;67758;39.572;2.652;2024-01-27T08:54:15;16.48;;;7.20;;
68449;SDS011;67758;39.572;2.652;2024-01-27T08:56:40;18.90;;;6.85;;
68449;SDS011;67758;39.572;2.652;2024-01-27T08:59:06;22.17;;;8.17;;
68449;SDS011;67758;39.572;2.652;2024-01-27T09:01:32;20.83;;;8.65;;
68449;SDS011;67758;39.572;2.652;2024-01-27T09:03:57;21.87;;;9.40;;
68449;SDS011;67758;39.572;2.652;2024-01-27T09:06:23;19.25;;;8.88;;
68449;SDS011;67758;39.572;2.652;2024-01-27T09:08:48;21.10;;;8.80;;
68449;SDS011;67758;39.572;2.652;2024-01-27T09:11:14;23.63;;;10.43;;
68449;SDS011;67758;39.572;2.652;2024-01-27T09:13:39;28.73;;;11.48;;
68449;SDS011;67758;39.572;2.652;2024-01-27T09:16:05;30.13;;;12.53;;
68449;SDS011;67758;39.572;2.652;2024-01-27T09:18:31;27.03;;;12.97;;
68449;SDS011;67758;39.572;2.652;2024-01-27T09:20:56;25.67;;;12.55;;
68449;SDS011;67758;39.572;2.652;2024-01-27T09:23:22;30.67;;;12.83;;
68449;SDS011;67758;39.572;2.652;2024-01-27T09:25:48;24.85;;;11.73;;
68449;SDS011;67758;39.572;2.652;2024-01-27T09:28:13;28.17;;;12.20;;
68449;SDS011;67758;39.572;2.652;2024-01-27T09:30:41;27.58;;;12.70;;
68449;SDS011;67758;39.572;2.652;2024-01-27T09:33:06;27.10;;;11.73;;
68449;SDS011;67758;39.572;2.652;2024-01-27T09:35:32;25.83;;;10.70;;
68449;SDS011;67758;39.572;2.652;2024-01-27T09:37:57;16.13;;;7.70;;
68449;SDS011;67758;39.572;2.652;2024-01-27T09:40:23;18.00;;;6.55;;
68449;SDS011;67758;39.572;2.652;2024-01-27T09:42:52;22.97;;;8.83;;
68449;SDS011;67758;39.572;2.652;2024-01-27T09:45:20;18.45;;;8.32;;
68449;SDS011;67758;39.572;2.652;2024-01-27T09:47:47;19.80;;;8.18;;
68449;SDS011;67758;39.572;2.652;2024-01-27T09:50:13;25.20;;;7.82;;
68449;SDS011;67758;39.572;2.652;2024-01-27T09:52:39;20.05;;;6.70;;
68449;SDS011;67758;39.572;2.652;2024-01-27T09:55:05;18.50;;;6.97;;
68449;SDS011;67758;39.572;2.652;2024-01-27T09:57:32;15.02;;;6.75;;
68449;SDS011;67758;39.572;2.652;2024-01-27T09:59:58;16.58;;;6.35;;
68449;SDS011;67758;39.572;2.652;2024-01-27T10:02:24;17.67;;;6.75;;
68449;SDS011;67758;39.572;2.652;2024-01-27T10:04:51;15.13;;;6.83;;
68449;SDS011;67758;39.572;2.652;2024-01-27T10:07:16;14.20;;;5.97;;
68449;SDS011;67758;39.572;2.652;2024-01-27T10:09:42;13.07;;;5.50;;
68449;SDS011;67758;39.572;2.652;2024-01-27T10:12:09;12.18;;;5.45;;
68449;SDS011;67758;39.572;2.652;2024-01-27T10:14:42;13.00;;;5.30;;
68449;SDS011;67758;39.572;2.652;2024-01-27T10:17:19;9.45;;;4.50;;
68449;SDS011;67758;39.572;2.652;2024-01-27T10:20:03;12.00;;;4.75;;
68449;SDS011;67758;39.572;2.652;2024-01-27T10:22:39;13.23;;;5.30;;
68449;SDS011;67758;39.572;2.652;2024-01-27T10:25:08;14.73;;;5.82;;
68449;SDS011;67758;39.572;2.652;2024-01-27T10:27:37;10.55;;;4.75;;
68449;SDS011;67758;39.572;2.652;2024-01-27T10:30:03;11.60;;;4.45;;
68449;SDS011;67758;39.572;2.652;2024-01-27T10:32:29;10.50;;;3.80;;
68449;SDS011;67758;39.572;2.652;2024-01-27T10:35:07;12.63;;;4.03;;
68449;SDS011;67758;39.572;2.652;2024-01-27T10:37:34;8.93;;;3.90;;
68449;SDS011;67758;39.572;2.652;2024-01-27T10:40:00;9.40;;;4.50;;
68449;SDS011;67758;39.572;2.652;2024-01-27T10:42:30;12.52;;;5.90;;
68449;SDS011;67758;39.572;2.652;2024-01-27T10:44:59;13.52;;;5.72;;
68449;SDS011;67758;39.572;2.652;2024-01-27T10:47:29;14.30;;;5.90;;
68449;SDS011;67758;39.572;2.652;2024-01-27T10:49:56;12.07;;;6.30;;
68449;SDS011;67758;39.572;2.652;2024-01-27T10:52:23;13.40;;;6.13;;
68449;SDS011;67758;39.572;2.652;2024-01-27T10:55:00;18.67;;;5.55;;
68449;SDS011;67758;39.572;2.652;2024-01-27T10:57:31;15.25;;;5.72;;
68449;SDS011;67758;39.572;2.652;2024-01-27T10:59:58;16.42;;;4.65;;
68449;SDS011;67758;39.572;2.652;2024-01-27T11:02:27;13.45;;;5.18;;
68449;SDS011;67758;39.572;2.652;2024-01-27T11:04:57;10.20;;;5.10;;
68449;SDS011;67758;39.572;2.652;2024-01-27T11:07:25;9.07;;;4.35;;
68449;SDS011;67758;39.572;2.652;2024-01-27T11:09:52;12.38;;;4.93;;
68449;SDS011;67758;39.572;2.652;2024-01-27T11:12:21;10.50;;;4.50;;
68449;SDS011;67758;39.572;2.652;2024-01-27T11:14:48;11.35;;;3.95;;
68449;SDS011;67758;39.572;2.652;2024-01-27T11:17:17;8.52;;;4.43;;
68449;SDS011;67758;39.572;2.652;2024-01-27T11:19:47;7.57;;;3.30;;
68449;SDS011;67758;39.572;2.652;2024-01-27T11:22:26;10.60;;;4.10;;
68449;SDS011;67758;39.572;2.652;2024-01-27T11:25:06;13.27;;;3.40;;
68449;SDS011;67758;39.572;2.652;2024-01-27T11:27:34;8.93;;;3.47;;
68449;SDS011;67758;39.572;2.652;2024-01-27T11:30:00;9.32;;;3.92;;
68449;SDS011;67758;39.572;2.652;2024-01-27T11:32:26;8.63;;;3.47;;
68449;SDS011;67758;39.572;2.652;2024-01-27T11:34:52;9.10;;;3.65;;
68449;SDS011;67758;39.572;2.652;2024-01-27T11:37:18;10.73;;;4.22;;
68449;SDS011;67758;39.572;2.652;2024-01-27T11:39:49;11.18;;;3.70;;
68449;SDS011;67758;39.572;2.652;2024-01-27T11:42:16;7.63;;;3.97;;
68449;SDS011;67758;39.572;2.652;2024-01-27T11:44:43;11.32;;;4.35;;
68449;SDS011;67758;39.572;2.652;2024-01-27T11:47:14;9.60;;;4.57;;
68449;SDS011;67758;39.572;2.652;2024-01-27T11:49:48;9.90;;;4.10;;
68449;SDS011;67758;39.572;2.652;2024-01-27T11:52:17;8.77;;;3.50;;
68449;SDS011;67758;39.572;2.652;2024-01-27T11:54:43;7.05;;;3.70;;
68449;SDS011;67758;39.572;2.652;2024-01-27T11:57:09;10.50;;;3.93;;
68449;SDS011;67758;39.572;2.652;2024-01-27T11:59:34;8.98;;;4.10;;
68449;SDS011;67758;39.572;2.652;2024-01-27T12:02:01;11.43;;;4.90;;
68449;SDS011;67758;39.572;2.652;2024-01-27T12:04:27;12.00;;;5.00;;
68449;SDS011;67758;39.572;2.652;2024-01-27T12:06:53;13.27;;;4.72;;
68449;SDS011;67758;39.572;2.652;2024-01-27T12:09:19;13.27;;;4.88;;
68449;SDS011;67758;39.572;2.652;2024-01-27T12:11:45;8.80;;;4.77;;
68449;SDS011;67758;39.572;2.652;2024-01-27T12:14:11;18.65;;;5.70;;
68449;SDS011;67758;39.572;2.652;2024-01-27T12:16:37;14.40;;;4.73;;
68449;SDS011;67758;39.572;2.652;2024-01-27T12:19:03;11.15;;;4.47;;
68449;SDS011;67758;39.572;2.652;2024-01-27T12:21:29;9.05;;;3.80;;
68449;SDS011;67758;39.572;2.652;2024-01-27T12:23:56;10.37;;;4.03;;
68449;SDS011;67758;39.572;2.652;2024-01-27T12:26:26;11.27;;;3.70;;
68449;SDS011;67758;39.572;2.652;2024-01-27T12:28:56;14.27;;;5.05;;
68449;SDS011;67758;39.572;2.652;2024-01-27T12:31:23;14.05;;;6.25;;
68449;SDS011;67758;39.572;2.652;2024-01-27T12:33:50;9.30;;;3.70;;
68449;SDS011;67758;39.572;2.652;2024-01-27T12:36:19;10.73;;;3.90;;
68449;SDS011;67758;39.572;2.652;2024-01-27T12:38:59;10.75;;;4.63;;
68449;SDS011;67758;39.572;2.652;2024-01-27T12:41:26;8.77;;;4.15;;
68449;SDS011;67758;39.572;2.652;2024-01-27T12:43:53;7.85;;;4.45;;
68449;SDS011;67758;39.572;2.652;2024-01-27T12:46:19;32.75;;;20.67;;
68449;SDS011;67758;39.572;2.652;2024-01-27T12:48:45;8.20;;;4.00;;
68449;SDS011;67758;39.572;2.652;2024-01-27T12:51:11;11.55;;;4.60;;
68449;SDS011;67758;39.572;2.652;2024-01-27T12:53:40;13.85;;;5.20;;
68449;SDS011;67758;39.572;2.652;2024-01-27T12:56:09;10.33;;;3.47;;
68449;SDS011;67758;39.572;2.652;2024-01-27T12:58:36;10.77;;;2.97;;
68449;SDS011;67758;39.572;2.652;2024-01-27T13:01:03;8.25;;;3.10;;
68449;SDS011;67758;39.572;2.652;2024-01-27T13:03:28;7.60;;;2.47;;
68449;SDS011;67758;39.572;2.652;2024-01-27T13:05:54;9.50;;;2.83;;
68449;SDS011;67758;39.572;2.652;2024-01-27T13:08:21;5.70;;;2.25;;
68449;SDS011;67758;39.572;2.652;2024-01-27T13:10:47;7.43;;;2.35;;
68449;SDS011;67758;39.572;2.652;2024-01-27T13:13:13;8.57;;;3.22;;
68449;SDS011;67758;39.572;2.652;2024-01-27T13:15:39;9.82;;;4.00;;
68449;SDS011;67758;39.572;2.652;2024-01-27T13:18:05;7.60;;;2.83;;
68449;SDS011;67758;39.572;2.652;2024-01-27T13:20:31;7.05;;;2.78;;
68449;SDS011;67758;39.572;2.652;2024-01-27T13:22:57;10.70;;;3.85;;
68449;SDS011;67758;39.572;2.652;2024-01-27T13:25:24;8.55;;;3.22;;
68449;SDS011;67758;39.572;2.652;2024-01-27T13:27:50;7.27;;;2.37;;
68449;SDS011;67758;39.572;2.652;2024-01-27T13:30:15;7.63;;;2.40;;
68449;SDS011;67758;39.572;2.652;2024-01-27T13:32:42;19.48;;;5.80;;
68449;SDS011;67758;39.572;2.652;2024-01-27T13:35:08;8.03;;;2.60;;
68449;SDS011;67758;39.572;2.652;2024-01-27T13:37:34;9.68;;;4.80;;
68449;SDS011;67758;39.572;2.652;2024-01-27T13:40:00;10.35;;;2.95;;
68449;SDS011;67758;39.572;2.652;2024-01-27T13:42:26;6.67;;;2.57;;
68449;SDS011;67758;39.572;2.652;2024-01-27T13:44:52;6.72;;;2.33;;
68449;SDS011;67758;39.572;2.652;2024-01-27T13:47:18;11.40;;;2.90;;
68449;SDS011;67758;39.572;2.652;2024-01-27T13:49:44;11.13;;;3.72;;
68449;SDS011;67758;39.572;2.652;2024-01-27T13:52:10;7.15;;;2.55;;
68449;SDS011;67758;39.572;2.652;2024-01-27T13:54:36;7.78;;;2.28;;
68449;SDS011;67758;39.572;2.652;2024-01-27T13:57:02;7.30;;;2.75;;
68449;SDS011;67758;39.572;2.652;2024-01-27T13:59:30;5.72;;;1.70;;
68449;SDS011;67758;39.572;2.652;2024-01-27T14:01:57;5.85;;;2.13;;
68449;SDS011;67758;39.572;2.652;2024-01-27T14:04:23;7.47;;;2.22;;
68449;SDS011;67758;39.572;2.652;2024-01-27T14:06:52;6.75;;;2.20;;
68449;SDS011;67758;39.572;2.652;2024-01-27T14:09:19;7.20;;;2.22;;
68449;SDS011;67758;39.572;2.652;2024-01-27T14:11:46;7.63;;;2.40;;
68449;SDS011;67758;39.572;2.652;2024-01-27T14:14:12;9.23;;;2.30;;
68449;SDS011;67758;39.572;2.652;2024-01-27T14:16:37;6.95;;;1.73;;
68449;SDS011;67758;39.572;2.652;2024-01-27T14:19:03;10.47;;;2.27;;
68449;SDS011;67758;39.572;2.652;2024-01-27T14:21:29;8.07;;;1.75;;
68449;SDS011;67758;39.572;2.652;2024-01-27T14:23:54;7.50;;;1.93;;
68449;SDS011;67758;39.572;2.652;2024-01-27T14:26:28;7.03;;;1.77;;
68449;SDS011;67758;39.572;2.652;2024-01-27T14:28:54;17.73;;;6.57;;
68449;SDS011;67758;39.572;2.652;2024-01-27T14:31:20;7.80;;;2.30;;
68449;SDS011;67758;39.572;2.652;2024-01-27T14:33:46;5.90;;;2.13;;
68449;SDS011;67758;39.572;2.652;2024-01-27T14:36:12;7.63;;;1.88;;
68449;SDS011;67758;39.572;2.652;2024-01-27T14:38:38;5.47;;;1.80;;